createdAt,value
2022-10-11T00:00:50.311Z,0
2022-10-11T00:01:53.784Z,0
2022-10-11T00:02:56.854Z,0
2022-10-11T00:04:00.207Z,0
2022-10-11T00:05:03.298Z,0
2022-10-11T00:06:06.332Z,0
2022-10-11T00:07:11.236Z,0
2022-10-11T00:08:13.952Z,0
2022-10-11T00:09:18.121Z,0
2022-10-11T00:10:21.530Z,0
2022-10-11T00:11:24.325Z,0
2022-10-11T00:12:27.818Z,0
2022-10-11T00:13:30.685Z,0
2022-10-11T00:14:34.190Z,0
2022-10-11T00:15:37.195Z,0
2022-10-11T00:16:40.384Z,0
2022-10-11T00:17:43.175Z,0
2022-10-11T00:18:46.417Z,0
2022-10-11T00:19:49.483Z,0
2022-10-11T00:20:52.460Z,0
2022-10-11T00:21:55.839Z,0
2022-10-11T00:22:58.422Z,0
2022-10-11T00:24:00.939Z,0
2022-10-11T00:25:04.381Z,0
2022-10-11T00:26:07.860Z,0
2022-10-11T00:27:12.256Z,0
2022-10-11T00:28:15.240Z,0
2022-10-11T00:29:18.397Z,0
2022-10-11T00:30:21.573Z,0
2022-10-11T00:31:24.092Z,0
2022-10-11T00:32:27.722Z,0
2022-10-11T00:33:31.261Z,0
2022-10-11T00:34:33.923Z,0
2022-10-11T00:35:36.713Z,0
2022-10-11T00:36:39.648Z,0
2022-10-11T00:37:42.817Z,0
2022-10-11T00:38:46.040Z,0
2022-10-11T00:39:48.560Z,0
2022-10-11T00:40:52.324Z,0
2022-10-11T00:41:55.814Z,0
2022-10-11T00:42:58.606Z,0
2022-10-11T00:44:01.752Z,0
2022-10-11T00:45:04.830Z,0
2022-10-11T00:46:08.751Z,0
2022-10-11T00:47:12.285Z,0
2022-10-11T00:48:14.882Z,0
2022-10-11T00:49:17.553Z,0
2022-10-11T00:50:20.735Z,0
2022-10-11T00:51:24.081Z,0
2022-10-11T00:52:27.164Z,0
2022-10-11T00:53:29.665Z,0
2022-10-11T00:54:32.554Z,0
2022-10-11T00:55:35.970Z,0
2022-10-11T00:56:39.792Z,0
2022-10-11T00:57:43.265Z,0
2022-10-11T00:58:45.963Z,0
2022-10-11T00:59:48.632Z,0
2022-10-11T01:00:51.734Z,0
2022-10-11T01:01:55.265Z,0
2022-10-11T01:02:57.785Z,0
2022-10-11T01:04:00.230Z,0
2022-10-11T01:05:25.580Z,0
2022-10-11T01:06:33.285Z,0
2022-10-11T01:07:35.452Z,0
2022-10-11T01:08:37.500Z,0
2022-10-11T01:09:40.584Z,0
2022-10-11T01:10:43.310Z,0
2022-10-11T01:11:47.124Z,0
2022-10-11T01:12:50.601Z,0
2022-10-11T01:13:53.395Z,0
2022-10-11T01:14:56.279Z,0
2022-10-11T01:15:59.073Z,0
2022-10-11T01:17:03.474Z,0
2022-10-11T01:18:06.460Z,0
2022-10-11T01:19:09.256Z,0
2022-10-11T01:20:12.074Z,0
2022-10-11T01:21:14.515Z,0
2022-10-11T01:22:17.636Z,0
2022-10-11T01:23:20.541Z,0
2022-10-11T01:24:23.418Z,0
2022-10-11T01:25:26.205Z,0
2022-10-11T01:26:29.342Z,0
2022-10-11T01:27:32.985Z,0
2022-10-11T01:28:35.895Z,0
2022-10-11T01:29:39.028Z,0
2022-10-11T01:30:42.469Z,0
2022-10-11T01:31:45.817Z,0
2022-10-11T01:32:48.608Z,0
2022-10-11T01:33:51.427Z,0
2022-10-11T01:34:54.233Z,0
2022-10-11T01:35:57.232Z,0
2022-10-11T01:36:59.733Z,0
2022-10-11T01:38:02.531Z,0
2022-10-11T01:39:05.116Z,0
2022-10-11T01:40:08.274Z,0
2022-10-11T01:41:10.975Z,0
2022-10-11T01:42:14.050Z,0
2022-10-11T01:43:18.148Z,0
2022-10-11T01:44:21.724Z,0
2022-10-11T01:45:25.438Z,0
2022-10-11T01:46:28.664Z,0
2022-10-11T01:47:31.745Z,0
2022-10-11T01:48:34.868Z,0
2022-10-11T01:49:38.385Z,0
2022-10-11T01:50:41.740Z,0
2022-10-11T01:51:47.264Z,0
2022-10-11T01:52:51.236Z,0
2022-10-11T01:53:54.404Z,0
2022-10-11T01:55:08.959Z,0
2022-10-11T01:56:13.816Z,0
2022-10-11T01:57:16.357Z,0
2022-10-11T01:58:19.865Z,0
2022-10-11T01:59:23.378Z,0
2022-10-11T02:00:26.485Z,0
2022-10-11T02:01:29.675Z,0
2022-10-11T02:02:33.086Z,0
2022-10-11T02:03:36.523Z,0
2022-10-11T02:04:39.004Z,0
2022-10-11T02:05:42.439Z,0
2022-10-11T02:06:45.142Z,0
2022-10-11T02:07:48.141Z,0
2022-10-11T02:08:51.607Z,0
2022-10-11T02:09:54.388Z,0
2022-10-11T02:10:57.848Z,0
2022-10-11T02:12:00.922Z,0
2022-10-11T02:13:03.633Z,0
2022-10-11T02:14:07.715Z,0
2022-10-11T02:15:10.577Z,0
2022-10-11T02:16:13.483Z,0
2022-10-11T02:17:16.267Z,0
2022-10-11T02:18:19.123Z,0
2022-10-11T02:19:21.826Z,0
2022-10-11T02:20:24.896Z,0
2022-10-11T02:21:26.807Z,0
2022-10-11T02:22:29.882Z,0
2022-10-11T02:23:32.465Z,0
2022-10-11T02:24:35.433Z,0
2022-10-11T02:25:38.412Z,0
2022-10-11T02:26:41.621Z,0
2022-10-11T02:27:44.697Z,0
2022-10-11T02:28:47.908Z,0
2022-10-11T02:29:51.817Z,0
2022-10-11T02:30:55.057Z,0
2022-10-11T02:31:58.836Z,0
2022-10-11T02:33:01.433Z,0
2022-10-11T02:34:04.572Z,0
2022-10-11T02:35:07.388Z,0
2022-10-11T02:36:10.762Z,0
2022-10-11T02:37:14.121Z,0
2022-10-11T02:38:17.215Z,0
2022-10-11T02:39:20.302Z,0
2022-10-11T02:40:23.021Z,0
2022-10-11T02:41:26.743Z,0
2022-10-11T02:42:29.560Z,0
2022-10-11T02:43:32.746Z,0
2022-10-11T02:44:35.566Z,0
2022-10-11T02:45:39.138Z,0
2022-10-11T02:46:42.377Z,0
2022-10-11T02:47:45.475Z,0
2022-10-11T02:48:48.584Z,0
2022-10-11T02:49:51.656Z,0
2022-10-11T02:50:55.167Z,0
2022-10-11T02:51:58.169Z,0
2022-10-11T02:53:01.240Z,0
2022-10-11T02:54:04.034Z,0
2022-10-11T02:55:06.548Z,0
2022-10-11T02:56:09.274Z,0
2022-10-11T02:57:12.438Z,0
2022-10-11T02:58:15.861Z,0
2022-10-11T02:59:19.041Z,0
2022-10-11T03:00:21.928Z,0
2022-10-11T03:01:25.749Z,0
2022-10-11T03:02:28.962Z,0
2022-10-11T03:03:31.785Z,0
2022-10-11T03:04:34.891Z,0
2022-10-11T03:05:38.306Z,0
2022-10-11T03:06:41.234Z,0
2022-10-11T03:07:44.223Z,0
2022-10-11T03:08:46.743Z,0
2022-10-11T03:09:49.993Z,0
2022-10-11T03:10:53.142Z,0
2022-10-11T03:11:56.488Z,0
2022-10-11T03:13:00.173Z,0
2022-10-11T03:14:03.244Z,0
2022-10-11T03:15:05.966Z,0
2022-10-11T03:16:09.610Z,0
2022-10-11T03:17:34.886Z,0
2022-10-11T03:18:40.764Z,0
2022-10-11T03:19:44.109Z,0
2022-10-11T03:20:46.632Z,0
2022-10-11T03:21:49.334Z,0
2022-10-11T03:22:52.518Z,0
2022-10-11T03:23:55.507Z,0
2022-10-11T03:25:03.509Z,0
2022-10-11T03:26:08.500Z,0
2022-10-11T03:27:11.933Z,0
2022-10-11T03:28:15.151Z,0
2022-10-11T03:29:18.644Z,0
2022-10-11T03:30:20.970Z,0
2022-10-11T03:31:23.843Z,0
2022-10-11T03:32:27.345Z,0
2022-10-11T03:33:30.416Z,0
2022-10-11T03:34:33.685Z,0
2022-10-11T03:35:36.498Z,0
2022-10-11T03:36:39.289Z,0
2022-10-11T03:37:42.240Z,0
2022-10-11T03:38:45.375Z,0
2022-10-11T03:39:49.171Z,0
2022-10-11T03:40:52.250Z,0
2022-10-11T03:41:55.039Z,0
2022-10-11T03:42:58.655Z,0
2022-10-11T03:44:01.513Z,0
2022-10-11T03:45:04.292Z,0
2022-10-11T03:46:08.341Z,0
2022-10-11T03:47:12.738Z,0
2022-10-11T03:48:16.529Z,0
2022-10-11T03:49:19.965Z,0
2022-10-11T03:50:24.021Z,0
2022-10-11T03:51:26.801Z,0
2022-10-11T03:52:29.397Z,0
2022-10-11T03:53:32.816Z,0
2022-10-11T03:54:35.749Z,0
2022-10-11T03:55:38.973Z,0
2022-10-11T03:56:41.773Z,0
2022-10-11T03:57:44.938Z,0
2022-10-11T03:58:48.057Z,0
2022-10-11T03:59:51.001Z,0
2022-10-11T04:00:54.341Z,0
2022-10-11T04:01:56.732Z,0
2022-10-11T04:03:01.111Z,0
2022-10-11T04:04:04.327Z,0
2022-10-11T04:05:07.315Z,0
2022-10-11T04:06:11.119Z,0
2022-10-11T04:07:14.551Z,0
2022-10-11T04:08:17.900Z,0
2022-10-11T04:09:20.582Z,0
2022-10-11T04:10:23.663Z,0
2022-10-11T04:11:26.551Z,0
2022-10-11T04:12:29.626Z,0
2022-10-11T04:13:32.697Z,0
2022-10-11T04:14:35.568Z,0
2022-10-11T04:15:38.929Z,0
2022-10-11T04:16:42.476Z,0
2022-10-11T04:17:45.810Z,0
2022-10-11T04:18:48.410Z,0
2022-10-11T04:19:51.859Z,0
2022-10-11T04:20:54.934Z,0
2022-10-11T04:21:58.535Z,0
2022-10-11T04:23:01.988Z,0
2022-10-11T04:24:04.370Z,0
2022-10-11T04:25:07.450Z,0
2022-10-11T04:26:10.627Z,0
2022-10-11T04:27:13.809Z,0
2022-10-11T04:28:16.668Z,0
2022-10-11T04:29:20.283Z,0
2022-10-11T04:30:23.069Z,0
2022-10-11T04:31:26.012Z,0
2022-10-11T04:32:29.387Z,0
2022-10-11T04:33:32.175Z,0
2022-10-11T04:34:35.640Z,0
2022-10-11T04:35:39.127Z,0
2022-10-11T04:36:45.277Z,0
2022-10-11T04:37:53.098Z,0
2022-10-11T04:38:56.259Z,0
2022-10-11T04:39:59.122Z,0
2022-10-11T04:41:02.021Z,0
2022-10-11T04:42:05.192Z,0
2022-10-11T04:43:08.360Z,0
2022-10-11T04:44:11.074Z,0
2022-10-11T04:45:14.544Z,0
2022-10-11T04:46:17.336Z,0
2022-10-11T04:47:20.529Z,0
2022-10-11T04:48:23.695Z,0
2022-10-11T04:49:26.644Z,0
2022-10-11T04:50:29.730Z,0
2022-10-11T04:51:33.602Z,0
2022-10-11T04:52:36.599Z,0
2022-10-11T04:53:40.189Z,0
2022-10-11T04:54:43.620Z,0
2022-10-11T04:55:46.413Z,0
2022-10-11T04:56:49.367Z,0
2022-10-11T04:57:52.437Z,0
2022-10-11T04:58:55.594Z,4
2022-10-11T04:59:58.731Z,4
2022-10-11T05:01:01.446Z,4
2022-10-11T05:02:04.626Z,0
2022-10-11T05:03:08.070Z,4
2022-10-11T05:04:11.554Z,4
2022-10-11T05:05:14.422Z,4
2022-10-11T05:06:16.870Z,8
2022-10-11T05:07:20.664Z,8
2022-10-11T05:08:23.379Z,8
2022-10-11T05:09:26.534Z,12
2022-10-11T05:10:29.516Z,12
2022-10-11T05:11:32.590Z,20
2022-10-11T05:12:35.569Z,24
2022-10-11T05:13:38.359Z,28
2022-10-11T05:14:41.813Z,32
2022-10-11T05:15:44.521Z,40
2022-10-11T05:16:46.770Z,48
2022-10-11T05:17:49.838Z,60
2022-10-11T05:18:53.360Z,68
2022-10-11T05:19:55.974Z,84
2022-10-11T05:20:59.474Z,92
2022-10-11T05:22:02.285Z,108
2022-10-11T05:23:05.849Z,128
2022-10-11T05:24:08.187Z,144
2022-10-11T05:25:11.431Z,164
2022-10-11T05:26:14.016Z,188
2022-10-11T05:27:17.682Z,212
2022-10-11T05:28:20.591Z,236
2022-10-11T05:29:23.109Z,260
2022-10-11T05:30:26.915Z,292
2022-10-11T05:31:29.704Z,320
2022-10-11T05:32:33.134Z,348
2022-10-11T05:33:35.845Z,384
2022-10-11T05:34:39.120Z,416
2022-10-11T05:35:42.381Z,456
2022-10-11T05:36:45.727Z,492
2022-10-11T05:37:48.612Z,536
2022-10-11T05:38:51.804Z,580
2022-10-11T05:39:55.259Z,620
2022-10-11T05:40:58.410Z,668
2022-10-11T05:42:01.782Z,720
2022-10-11T05:43:12.888Z,776
2022-10-11T05:44:15.823Z,828
2022-10-11T05:45:18.148Z,876
2022-10-11T05:46:21.566Z,932
2022-10-11T05:47:24.286Z,984
2022-10-11T05:48:27.459Z,1044
2022-10-11T05:49:30.825Z,1100
2022-10-11T05:50:33.779Z,1164
2022-10-11T05:51:36.293Z,1228
2022-10-11T05:52:39.432Z,1292
2022-10-11T05:53:42.620Z,1356
2022-10-11T05:54:46.377Z,1424
2022-10-11T05:55:48.976Z,1488
2022-10-11T05:56:52.821Z,1552
2022-10-11T05:57:55.616Z,1612
2022-10-11T05:59:02.147Z,1680
2022-10-11T06:00:05.395Z,1752
2022-10-11T06:01:09.137Z,1820
2022-10-11T06:02:12.926Z,1892
2022-10-11T06:03:16.397Z,1968
2022-10-11T06:04:19.847Z,2044
2022-10-11T06:05:23.010Z,2108
2022-10-11T06:06:26.171Z,2180
2022-10-11T06:07:28.966Z,2264
2022-10-11T06:08:32.337Z,2336
2022-10-11T06:09:35.221Z,2408
2022-10-11T06:10:38.801Z,2476
2022-10-11T06:11:42.175Z,2544
2022-10-11T06:12:45.954Z,2604
2022-10-11T06:13:49.388Z,2672
2022-10-11T06:14:52.522Z,2732
2022-10-11T06:15:55.924Z,2808
2022-10-11T06:16:59.350Z,2868
2022-10-11T06:18:02.325Z,2928
2022-10-11T06:19:04.926Z,3012
2022-10-11T06:20:07.821Z,3048
2022-10-11T06:21:11.242Z,3136
2022-10-11T06:22:15.045Z,3204
2022-10-11T06:23:18.456Z,3292
2022-10-11T06:24:22.485Z,3364
2022-10-11T06:25:25.905Z,3468
2022-10-11T06:26:29.594Z,3508
2022-10-11T06:27:31.549Z,3604
2022-10-11T06:28:35.040Z,3668
2022-10-11T06:29:38.510Z,3696
2022-10-11T06:30:41.675Z,3788
2022-10-11T06:31:44.511Z,3912
2022-10-11T06:32:47.928Z,3980
2022-10-11T06:33:51.669Z,4048
2022-10-11T06:34:54.543Z,4088
2022-10-11T06:35:57.816Z,4188
2022-10-11T06:37:01.433Z,4272
2022-10-11T06:38:04.871Z,4340
2022-10-11T06:39:07.929Z,4416
2022-10-11T06:40:10.796Z,4476
2022-10-11T06:41:13.593Z,4564
2022-10-11T06:42:17.680Z,4616
2022-10-11T06:43:21.028Z,4680
2022-10-11T06:44:24.453Z,4748
2022-10-11T06:45:27.042Z,4796
2022-10-11T06:46:29.923Z,4872
2022-10-11T06:47:32.738Z,4956
2022-10-11T06:48:35.520Z,5020
2022-10-11T06:49:38.623Z,5084
2022-10-11T06:50:58.887Z,5168
2022-10-11T06:52:03.204Z,5264
2022-10-11T06:53:06.757Z,5328
2022-10-11T06:54:09.566Z,5404
2022-10-11T06:55:12.124Z,5468
2022-10-11T06:56:15.260Z,5540
2022-10-11T06:57:18.614Z,5608
2022-10-11T06:58:21.810Z,5676
2022-10-11T06:59:24.436Z,5764
2022-10-11T07:00:28.532Z,5848
2022-10-11T07:01:31.004Z,5944
2022-10-11T07:02:34.774Z,6028
2022-10-11T07:03:37.356Z,6128
2022-10-11T07:04:40.169Z,6252
2022-10-11T07:05:43.038Z,6356
2022-10-11T07:06:45.549Z,6480
2022-10-11T07:07:48.626Z,6620
2022-10-11T07:08:51.532Z,6724
2022-10-11T07:09:54.703Z,6868
2022-10-11T07:10:57.763Z,7008
2022-10-11T07:12:00.202Z,7724
2022-10-11T07:13:03.553Z,9736
2022-10-11T07:14:07.430Z,14484
2022-10-11T07:15:11.169Z,22272
2022-10-11T07:16:14.756Z,28416
2022-10-11T07:17:17.456Z,30912
2022-10-11T07:18:21.186Z,33632
2022-10-11T07:19:24.216Z,37472
2022-10-11T07:20:27.330Z,42432
2022-10-11T07:21:30.494Z,46048
2022-10-11T07:22:33.310Z,49056
2022-10-11T07:23:35.488Z,51520
2022-10-11T07:24:39.302Z,58368
2022-10-11T07:25:42.141Z,62016
2022-10-11T07:26:44.960Z,66624
2022-10-11T07:27:48.032Z,60352
2022-10-11T07:28:51.274Z,59328
2022-10-11T07:29:55.360Z,59360
2022-10-11T07:30:58.418Z,59008
2022-10-11T07:32:02.117Z,59616
2022-10-11T07:33:05.272Z,60448
2022-10-11T07:34:08.436Z,60800
2022-10-11T07:35:11.449Z,61408
2022-10-11T07:36:14.515Z,62880
2022-10-11T07:37:17.319Z,64224
2022-10-11T07:38:19.928Z,65216
2022-10-11T07:39:22.168Z,65376
2022-10-11T07:40:25.878Z,61952
2022-10-11T07:41:28.995Z,48288
2022-10-11T07:42:31.792Z,54432
2022-10-11T07:43:35.322Z,63712
2022-10-11T07:44:38.992Z,64896
2022-10-11T07:45:42.392Z,66208
2022-10-11T07:46:45.737Z,66496
2022-10-11T07:47:49.260Z,66656
2022-10-11T07:48:52.394Z,66464
2022-10-11T07:49:54.634Z,68064
2022-10-11T07:50:58.063Z,68608
2022-10-11T07:52:00.868Z,69152
2022-10-11T07:53:04.090Z,70848
2022-10-11T07:54:07.719Z,72480
2022-10-11T07:55:10.088Z,73760
2022-10-11T07:56:12.970Z,74560
2022-10-11T07:57:15.832Z,74784
2022-10-11T07:58:19.268Z,75296
2022-10-11T07:59:21.987Z,75488
2022-10-11T08:00:25.432Z,76448
2022-10-11T08:01:29.116Z,75616
2022-10-11T08:02:33.298Z,75136
2022-10-11T08:03:36.925Z,75808
2022-10-11T08:04:39.828Z,77216
2022-10-11T08:05:42.631Z,78368
2022-10-11T08:06:48.634Z,80768
2022-10-11T08:07:56.709Z,82912
2022-10-11T08:08:59.776Z,84064
2022-10-11T08:10:02.929Z,86336
2022-10-11T08:11:06.012Z,87328
2022-10-11T08:12:09.345Z,86912
2022-10-11T08:13:12.868Z,87808
2022-10-11T08:14:16.307Z,86752
2022-10-11T08:15:20.137Z,85760
2022-10-11T08:16:22.662Z,81024
2022-10-11T08:17:26.468Z,78144
2022-10-11T08:18:29.049Z,74144
2022-10-11T08:19:32.469Z,69696
2022-10-11T08:20:35.821Z,69568
2022-10-11T08:21:38.640Z,73440
2022-10-11T08:22:41.461Z,78528
2022-10-11T08:23:44.216Z,83392
2022-10-11T08:24:47.666Z,83072
2022-10-11T08:25:50.893Z,84256
2022-10-11T08:26:54.220Z,85184
2022-10-11T08:27:57.462Z,85856
2022-10-11T08:29:00.654Z,86272
2022-10-11T08:30:04.412Z,86912
2022-10-11T08:31:07.465Z,87744
2022-10-11T08:32:10.290Z,86816
2022-10-11T08:33:14.136Z,79584
2022-10-11T08:34:17.314Z,88320
2022-10-11T08:35:21.213Z,87136
2022-10-11T08:36:25.401Z,84608
2022-10-11T08:37:28.306Z,80128
2022-10-11T08:38:30.811Z,82656
2022-10-11T08:39:33.938Z,82784
2022-10-11T08:40:38.047Z,83072
2022-10-11T08:41:41.262Z,84032
2022-10-11T08:42:44.134Z,85408
2022-10-11T08:43:47.301Z,86752
2022-10-11T08:45:09.873Z,87232
2022-10-11T08:46:15.181Z,84320
2022-10-11T08:47:18.014Z,84800
2022-10-11T08:48:21.473Z,84160
2022-10-11T08:49:24.745Z,85216
2022-10-11T08:50:28.321Z,84288
2022-10-11T08:51:31.507Z,87744
2022-10-11T08:52:34.329Z,88064
2022-10-11T08:53:38.060Z,86880
2022-10-11T08:54:42.124Z,86400
2022-10-11T08:55:45.260Z,86272
2022-10-11T08:56:48.385Z,86304
2022-10-11T08:57:51.726Z,86432
2022-10-11T08:58:55.159Z,86944
2022-10-11T08:59:58.946Z,87232
2022-10-11T09:01:01.853Z,86208
2022-10-11T09:02:05.523Z,87712
2022-10-11T09:03:09.646Z,89120
2022-10-11T09:04:13.287Z,89664
2022-10-11T09:05:16.197Z,90336
2022-10-11T09:06:19.999Z,90400
2022-10-11T09:07:22.946Z,90880
2022-10-11T09:08:26.395Z,90592
2022-10-11T09:09:28.995Z,91104
2022-10-11T09:10:32.165Z,91232
2022-10-11T09:11:35.621Z,90816
2022-10-11T09:12:40.903Z,91136
2022-10-11T09:13:43.996Z,92544
2022-10-11T09:14:47.397Z,92320
2022-10-11T09:15:50.732Z,91072
2022-10-11T09:16:54.465Z,91008
2022-10-11T09:17:57.536Z,91776
2022-10-11T09:19:00.082Z,91840
2022-10-11T09:20:03.573Z,91776
2022-10-11T09:21:06.810Z,93248
2022-10-11T09:22:10.639Z,94912
2022-10-11T09:23:12.873Z,96384
2022-10-11T09:24:15.734Z,94592
2022-10-11T09:25:18.727Z,93440
2022-10-11T09:26:21.537Z,93056
2022-10-11T09:27:38.058Z,91872
2022-10-11T09:29:06.756Z,89376
2022-10-11T09:30:10.854Z,87808
2022-10-11T09:31:13.446Z,87136
2022-10-11T09:32:16.048Z,87584
2022-10-11T09:33:18.946Z,88224
2022-10-11T09:34:22.680Z,88064
2022-10-11T09:35:26.099Z,88704
2022-10-11T09:36:29.092Z,90880
2022-10-11T09:37:32.380Z,93312
2022-10-11T09:38:35.173Z,93216
2022-10-11T09:39:37.613Z,93088
2022-10-11T09:40:40.133Z,94336
2022-10-11T09:41:42.733Z,95712
2022-10-11T09:42:46.192Z,96800
2022-10-11T09:43:49.924Z,96864
2022-10-11T09:44:53.115Z,97376
2022-10-11T09:45:55.788Z,97568
2022-10-11T09:46:59.053Z,97568
2022-10-11T09:48:02.442Z,98592
2022-10-11T09:49:05.020Z,96672
2022-10-11T09:50:08.122Z,98144
2022-10-11T09:51:11.911Z,99072
2022-10-11T09:52:15.027Z,100480
2022-10-11T09:53:18.748Z,100896
2022-10-11T09:54:22.465Z,101792
2022-10-11T09:55:25.284Z,105632
2022-10-11T09:56:28.713Z,107168
2022-10-11T09:57:31.881Z,108960
2022-10-11T09:58:34.757Z,111648
2022-10-11T09:59:37.836Z,114112
2022-10-11T10:00:41.264Z,116352
2022-10-11T10:01:44.448Z,115936
2022-10-11T10:02:48.335Z,118080
2022-10-11T10:03:51.208Z,116960
2022-10-11T10:04:54.554Z,116576
2022-10-11T10:05:57.708Z,116992
2022-10-11T10:07:01.331Z,117664
2022-10-11T10:08:05.169Z,116576
2022-10-11T10:09:08.646Z,115872
2022-10-11T10:10:10.879Z,115968
2022-10-11T10:11:14.229Z,116800
2022-10-11T10:12:17.683Z,117664
2022-10-11T10:13:21.426Z,118112
2022-10-11T10:14:24.874Z,117312
2022-10-11T10:15:28.090Z,117152
2022-10-11T10:16:31.081Z,117024
2022-10-11T10:17:34.227Z,116320
2022-10-11T10:18:37.618Z,115648
2022-10-11T10:19:44.646Z,113600
2022-10-11T10:20:48.231Z,113952
2022-10-11T10:21:51.450Z,114336
2022-10-11T10:22:55.031Z,114048
2022-10-11T10:23:57.775Z,114976
2022-10-11T10:25:01.407Z,115520
2022-10-11T10:26:05.204Z,118400
2022-10-11T10:27:10.348Z,118656
2022-10-11T10:28:13.667Z,121120
2022-10-11T10:29:17.437Z,124128
2022-10-11T10:30:20.895Z,125408
2022-10-11T10:31:23.681Z,123648
2022-10-11T10:32:28.072Z,121600
2022-10-11T10:33:31.588Z,120640
2022-10-11T10:34:34.306Z,122112
2022-10-11T10:35:37.106Z,122080
2022-10-11T10:36:40.638Z,121088
2022-10-11T10:37:43.710Z,120160
2022-10-11T10:38:51.956Z,121088
2022-10-11T10:39:55.186Z,125920
2022-10-11T10:40:58.454Z,128800
2022-10-11T10:42:00.611Z,128704
2022-10-11T10:43:03.401Z,128576
2022-10-11T10:44:07.387Z,130752
2022-10-11T10:45:12.643Z,127872
2022-10-11T10:46:24.770Z,126784
2022-10-11T10:47:28.120Z,126272
2022-10-11T10:48:42.344Z,16144
2022-10-11T10:50:57.232Z,121248
2022-10-11T10:52:00.691Z,119392
2022-10-11T10:53:03.601Z,117504
2022-10-11T10:54:07.277Z,115840
2022-10-11T10:55:10.065Z,112704
2022-10-11T10:56:13.662Z,113600
2022-10-11T10:57:16.750Z,116832
2022-10-11T10:58:19.485Z,116480
2022-10-11T10:59:22.820Z,117248
2022-10-11T11:00:26.546Z,116640
2022-10-11T11:01:29.753Z,118720
2022-10-11T11:02:40.559Z,121824
2022-10-11T11:03:45.722Z,121152
2022-10-11T11:04:48.280Z,122624
2022-10-11T11:05:51.486Z,113600
2022-10-11T11:06:53.981Z,17428
2022-10-11T11:07:57.247Z,116992
2022-10-11T11:09:00.232Z,121216
2022-10-11T11:10:03.661Z,122656
2022-10-11T11:11:07.009Z,116832
2022-10-11T11:12:10.720Z,118208
2022-10-11T11:13:13.435Z,22400
2022-10-11T11:14:16.544Z,126368
2022-10-11T11:15:20.870Z,121536
2022-10-11T11:16:40.641Z,36544
2022-10-11T11:17:43.723Z,124480
2022-10-11T11:18:46.607Z,126112
2022-10-11T11:19:49.402Z,32160
2022-10-11T11:20:52.682Z,57536
2022-10-11T11:21:56.250Z,22784
2022-10-11T11:22:59.403Z,36384
2022-10-11T11:24:02.599Z,124064
2022-10-11T11:25:05.515Z,26304
2022-10-11T11:26:08.765Z,32576
2022-10-11T11:27:11.410Z,23200
2022-10-11T11:28:14.799Z,18152
2022-10-11T11:29:17.986Z,21856
2022-10-11T11:30:21.153Z,125312
2022-10-11T11:31:24.017Z,126560
2022-10-11T11:32:27.170Z,125440
2022-10-11T11:33:29.332Z,121664
2022-10-11T11:34:32.472Z,119808
2022-10-11T11:35:35.277Z,117024
2022-10-11T11:36:38.797Z,15548
2022-10-11T11:37:41.516Z,101344
2022-10-11T11:38:44.298Z,17728
2022-10-11T11:39:46.909Z,57536
2022-10-11T11:40:50.085Z,76128
2022-10-11T11:41:53.435Z,20864
2022-10-11T11:42:56.870Z,117184
2022-10-11T11:43:59.958Z,119456
2022-10-11T11:45:02.480Z,118464
2022-10-11T11:46:06.477Z,118784
2022-10-11T11:47:09.630Z,121312
2022-10-11T11:48:12.521Z,52992
2022-10-11T11:49:15.673Z,118912
2022-10-11T11:50:18.402Z,114496
2022-10-11T11:51:20.602Z,112032
2022-10-11T11:52:24.698Z,109504
2022-10-11T11:53:27.302Z,107072
2022-10-11T11:54:30.395Z,104864
2022-10-11T11:55:33.552Z,28832
2022-10-11T11:56:36.589Z,103360
2022-10-11T11:57:40.063Z,104640
2022-10-11T11:58:42.711Z,105440
2022-10-11T11:59:46.245Z,106080
2022-10-11T12:00:49.698Z,107712
2022-10-11T12:01:53.174Z,29408
2022-10-11T12:02:56.585Z,39936
2022-10-11T12:03:59.442Z,17708
2022-10-11T12:05:02.848Z,89856
2022-10-11T12:06:05.626Z,51936
2022-10-11T12:07:16.149Z,110336
2022-10-11T12:08:21.315Z,108256
2022-10-11T12:09:23.824Z,104416
2022-10-11T12:10:27.129Z,102944
2022-10-11T12:11:34.597Z,100832
2022-10-11T12:12:39.099Z,100704
2022-10-11T12:13:41.929Z,102560
2022-10-11T12:14:45.289Z,105024
2022-10-11T12:15:49.355Z,110144
2022-10-11T12:16:52.450Z,103456
2022-10-11T12:17:55.039Z,33888
2022-10-11T12:18:58.147Z,34912
2022-10-11T12:20:01.150Z,108896
2022-10-11T12:21:04.577Z,111744
2022-10-11T12:22:09.472Z,113504
2022-10-11T12:23:15.570Z,113984
2022-10-11T12:24:23.113Z,40224
2022-10-11T12:25:25.364Z,28672
2022-10-11T12:26:29.350Z,21984
2022-10-11T12:27:32.503Z,20480
2022-10-11T12:28:35.742Z,19296
2022-10-11T12:29:40.522Z,16404
2022-10-11T12:30:43.232Z,13540
2022-10-11T12:31:46.787Z,11424
2022-10-11T12:32:49.911Z,9588
2022-10-11T12:33:53.145Z,8804
2022-10-11T12:34:56.584Z,8620
2022-10-11T12:36:00.433Z,8864
2022-10-11T12:37:13.297Z,8432
2022-10-11T12:38:16.750Z,8368
2022-10-11T12:39:19.260Z,9028
2022-10-11T12:40:22.733Z,10020
2022-10-11T12:41:25.620Z,10188
2022-10-11T12:42:28.979Z,10600
2022-10-11T12:43:32.399Z,10380
2022-10-11T12:44:36.098Z,23296
2022-10-11T12:45:39.605Z,13972
2022-10-11T12:46:43.026Z,28448
2022-10-11T12:47:46.646Z,23584
2022-10-11T12:48:50.113Z,20352
2022-10-11T12:49:53.173Z,22496
2022-10-11T12:51:00.820Z,30752
2022-10-11T12:52:06.611Z,19872
2022-10-11T12:53:09.800Z,37216
2022-10-11T12:54:26.475Z,16648
2022-10-11T12:55:39.843Z,17252
2022-10-11T12:56:43.215Z,16004
2022-10-11T12:57:46.673Z,13944
2022-10-11T12:58:49.888Z,10700
2022-10-11T12:59:53.653Z,8672
2022-10-11T13:00:57.284Z,8544
2022-10-11T13:02:00.693Z,8304
2022-10-11T13:03:04.201Z,8000
2022-10-11T13:04:07.156Z,6572
2022-10-11T13:05:09.776Z,6008
2022-10-11T13:06:13.288Z,5788
2022-10-11T13:07:16.485Z,5464
2022-10-11T13:08:19.202Z,5644
2022-10-11T13:09:22.380Z,6164
2022-10-11T13:10:24.890Z,8012
2022-10-11T13:11:27.675Z,9452
2022-10-11T13:12:30.750Z,9112
2022-10-11T13:13:33.468Z,8880
2022-10-11T13:14:36.443Z,9676
2022-10-11T13:15:39.677Z,19616
2022-10-11T13:16:43.185Z,8892
2022-10-11T13:17:45.910Z,9120
2022-10-11T13:18:49.835Z,8344
2022-10-11T13:19:52.649Z,8924
2022-10-11T13:20:55.090Z,9764
2022-10-11T13:21:58.554Z,40960
2022-10-11T13:23:01.903Z,36992
2022-10-11T13:24:04.254Z,30112
2022-10-11T13:25:07.334Z,48832
2022-10-11T13:26:10.604Z,42592
2022-10-11T13:27:13.465Z,48000
2022-10-11T13:28:16.569Z,56672
2022-10-11T13:29:20.402Z,62368
2022-10-11T13:30:23.476Z,15568
2022-10-11T13:31:26.976Z,48192
2022-10-11T13:32:30.725Z,39552
2022-10-11T13:33:34.742Z,58848
2022-10-11T13:34:38.886Z,56864
2022-10-11T13:35:41.114Z,26848
2022-10-11T13:36:44.860Z,20032
2022-10-11T13:37:48.324Z,15672
2022-10-11T13:38:52.067Z,13868
2022-10-11T13:39:54.666Z,15904
2022-10-11T13:40:57.809Z,14128
2022-10-11T13:42:00.873Z,14964
2022-10-11T13:43:03.612Z,12928
2022-10-11T13:44:07.051Z,13668
2022-10-11T13:45:10.580Z,14500
2022-10-11T13:46:13.105Z,13884
2022-10-11T13:47:16.869Z,12848
2022-10-11T13:48:20.349Z,11748
2022-10-11T13:49:23.422Z,10580
2022-10-11T13:50:27.580Z,9824
2022-10-11T13:51:30.569Z,9496
2022-10-11T13:52:33.995Z,9120
2022-10-11T13:53:37.388Z,8608
2022-10-11T13:54:40.299Z,9028
2022-10-11T13:55:43.813Z,10160
2022-10-11T13:56:47.161Z,11144
2022-10-11T13:57:50.013Z,11380
2022-10-11T13:58:53.760Z,11344
2022-10-11T13:59:57.378Z,11344
2022-10-11T14:01:00.245Z,11304
2022-10-11T14:02:03.375Z,11288
2022-10-11T14:03:06.692Z,11036
2022-10-11T14:04:10.293Z,10780
2022-10-11T14:05:13.673Z,10448
2022-10-11T14:06:17.538Z,10252
2022-10-11T14:07:20.602Z,10076
2022-10-11T14:08:23.970Z,9784
2022-10-11T14:09:26.849Z,9280
2022-10-11T14:10:30.593Z,8736
2022-10-11T14:11:34.019Z,8444
2022-10-11T14:12:37.399Z,8156
2022-10-11T14:13:40.858Z,7700
2022-10-11T14:14:43.947Z,7300
2022-10-11T14:15:46.110Z,7228
2022-10-11T14:16:48.878Z,7360
2022-10-11T14:17:52.372Z,7236
2022-10-11T14:18:55.287Z,6720
2022-10-11T14:20:03.964Z,6400
2022-10-11T14:21:14.573Z,6236
2022-10-11T14:22:18.692Z,5968
2022-10-11T14:23:22.044Z,5800